createdAt,value
2023-01-03T05:00:18.030Z,66.63
2023-01-03T05:02:49.602Z,67.08
2023-01-03T05:05:18.791Z,66.95
2023-01-03T05:07:47.750Z,66.69
2023-01-03T05:10:16.417Z,66.97
2023-01-03T05:13:00.103Z,66.86
2023-01-03T05:15:37.787Z,66.83
2023-01-03T05:18:08.160Z,66.94
2023-01-03T05:20:58.144Z,66.87
2023-01-03T05:23:45.759Z,66.81
2023-01-03T05:26:16.507Z,66.91
2023-01-03T05:28:48.592Z,67.08
2023-01-03T05:31:16.914Z,67.03
2023-01-03T05:33:45.964Z,67.05
2023-01-03T05:36:16.600Z,67.27
2023-01-03T05:38:46.122Z,67.14
2023-01-03T05:41:35.697Z,67.24
2023-01-03T05:44:05.089Z,67.27
2023-01-03T05:46:34.436Z,67.18
2023-01-03T05:49:03.844Z,67.11
2023-01-03T05:51:32.880Z,66.98
2023-01-03T05:54:02.307Z,67.28
2023-01-03T05:56:32.692Z,67.22
2023-01-03T05:59:01.385Z,67.19
2023-01-03T06:01:30.139Z,67.55
2023-01-03T06:03:58.881Z,67.35
2023-01-03T06:06:27.080Z,66.91
2023-01-03T06:08:56.054Z,67.07
2023-01-03T06:11:25.123Z,67.62
2023-01-03T06:13:54.652Z,67.41
2023-01-03T06:16:50.282Z,67.36
2023-01-03T06:19:19.637Z,67.21
2023-01-03T06:21:48.923Z,67.40
2023-01-03T06:24:18.307Z,67.78
2023-01-03T06:26:47.785Z,67.32
2023-01-03T06:29:19.561Z,67.32
2023-01-03T06:31:48.675Z,67.52
2023-01-03T06:34:17.561Z,67.37
2023-01-03T06:36:46.703Z,67.18
2023-01-03T06:39:15.188Z,66.91
2023-01-03T06:41:43.985Z,67.08
2023-01-03T06:44:13.096Z,67.32
2023-01-03T06:47:00.715Z,67.18
2023-01-03T06:50:08.356Z,67.31
2023-01-03T06:52:56.221Z,67.30
2023-01-03T06:55:25.578Z,67.52
2023-01-03T06:57:54.901Z,67.34
2023-01-03T07:00:24.314Z,67.60
2023-01-03T07:02:54.203Z,67.33
2023-01-03T07:05:22.989Z,67.66
2023-01-03T07:07:52.309Z,67.68
2023-01-03T07:10:21.530Z,67.55
2023-01-03T07:13:09.857Z,67.49
2023-01-03T07:15:44.358Z,67.61
2023-01-03T07:18:14.101Z,67.49
2023-01-03T07:20:44.269Z,67.60
2023-01-03T07:23:16.840Z,67.55
2023-01-03T07:25:48.223Z,67.67
2023-01-03T07:28:17.814Z,67.64
2023-01-03T07:30:47.054Z,67.30
2023-01-03T07:33:17.575Z,67.04
2023-01-03T07:35:46.582Z,67.36
2023-01-03T07:38:15.239Z,67.28
2023-01-03T07:40:45.202Z,67.34
2023-01-03T07:43:32.848Z,67.09
2023-01-03T07:46:12.070Z,67.12
2023-01-03T07:48:42.161Z,67.27
2023-01-03T07:51:15.933Z,67.02
2023-01-03T07:53:45.786Z,67.31
2023-01-03T07:56:17.239Z,66.93
2023-01-03T07:58:47.990Z,67.30
2023-01-03T08:01:19.706Z,67.28
2023-01-03T08:03:49.187Z,67.48
2023-01-03T08:06:22.881Z,67.19
2023-01-03T08:09:11.100Z,67.15
2023-01-03T08:11:59.308Z,66.99
2023-01-03T08:14:29.144Z,66.96
2023-01-03T08:16:57.658Z,67.08
2023-01-03T08:19:27.108Z,67.17
2023-01-03T08:21:55.695Z,67.20
2023-01-03T08:24:24.019Z,67.10
2023-01-03T08:26:52.293Z,67.26
2023-01-03T08:29:20.813Z,67.11
2023-01-03T08:31:55.923Z,67.00
2023-01-03T08:34:30.558Z,67.15
2023-01-03T08:37:03.542Z,67.08
2023-01-03T08:39:43.702Z,67.16
2023-01-03T08:42:15.857Z,66.99
2023-01-03T08:44:45.391Z,66.78
2023-01-03T08:47:15.692Z,66.82
2023-01-03T08:49:44.065Z,66.86
2023-01-03T08:52:12.221Z,66.69
2023-01-03T08:54:41.067Z,67.04
2023-01-03T08:57:09.682Z,66.86
2023-01-03T08:59:37.890Z,66.82
2023-01-03T09:02:06.957Z,66.78
2023-01-03T09:04:35.272Z,67.03
2023-01-03T09:07:03.366Z,66.97
2023-01-03T09:09:32.035Z,66.86
2023-01-03T09:12:00.269Z,66.45
2023-01-03T09:14:30.751Z,66.84
2023-01-03T09:16:59.155Z,66.67
2023-01-03T09:19:27.743Z,66.47
2023-01-03T09:21:56.077Z,66.63
2023-01-03T09:24:24.213Z,66.65
2023-01-03T09:26:55.290Z,66.54
2023-01-03T09:29:24.347Z,66.33
2023-01-03T09:31:53.448Z,66.56
2023-01-03T09:34:22.398Z,66.49
2023-01-03T09:36:50.610Z,66.17
2023-01-03T09:39:19.001Z,66.22
2023-01-03T09:42:07.827Z,66.30
2023-01-03T09:44:36.082Z,66.17
2023-01-03T09:47:05.225Z,66.28
2023-01-03T09:49:51.880Z,66.14
2023-01-03T09:52:50.870Z,66.33
2023-01-03T09:55:46.066Z,66.45
2023-01-03T09:58:54.726Z,66.18
2023-01-03T10:01:56.464Z,66.26
2023-01-03T10:04:49.685Z,66.02
2023-01-03T10:07:24.747Z,65.98
2023-01-03T10:10:14.800Z,66.09
2023-01-03T10:13:20.345Z,65.79
2023-01-03T10:16:08.420Z,66.16
2023-01-03T10:19:02.346Z,66.34
2023-01-03T10:21:46.341Z,65.96
2023-01-03T10:24:21.502Z,65.99
2023-01-03T10:27:18.610Z,65.75
2023-01-03T10:29:54.557Z,65.89
2023-01-03T10:32:49.988Z,65.95
2023-01-03T10:35:24.955Z,65.83
2023-01-03T10:37:55.886Z,65.94
2023-01-03T10:40:39.815Z,65.44
2023-01-03T10:43:16.719Z,65.67
2023-01-03T10:46:07.740Z,65.53
2023-01-03T10:49:17.005Z,65.67
2023-01-03T10:51:43.075Z,65.54
2023-01-03T10:54:36.841Z,65.66
2023-01-03T10:57:05.786Z,65.68
2023-01-03T10:59:37.874Z,65.86
2023-01-03T11:02:09.511Z,65.59
2023-01-03T11:04:39.113Z,65.76
2023-01-03T11:07:12.591Z,65.44
2023-01-03T11:09:48.848Z,65.58
2023-01-03T11:12:40.717Z,65.65
2023-01-03T11:15:38.195Z,65.59
2023-01-03T11:18:23.485Z,65.86
2023-01-03T11:20:55.682Z,65.78
2023-01-03T11:24:06.421Z,65.86
2023-01-03T11:27:01.079Z,65.21
2023-01-03T11:29:56.724Z,65.64
2023-01-03T11:32:52.562Z,65.54
2023-01-03T11:35:54.771Z,65.29
2023-01-03T11:38:46.666Z,65.49
2023-01-03T11:41:36.489Z,65.43
2023-01-03T11:44:14.250Z,65.44
2023-01-03T11:47:10.243Z,65.15
2023-01-03T11:50:03.937Z,64.97
2023-01-03T11:52:48.269Z,65.03
2023-01-03T11:55:51.303Z,65.06
2023-01-03T11:58:37.706Z,65.19
2023-01-03T12:01:18.904Z,65.05
2023-01-03T12:04:14.075Z,65.12
2023-01-03T12:07:37.469Z,65.11
2023-01-03T12:10:33.594Z,65.07
2023-01-03T12:13:29.099Z,65.13
2023-01-03T12:16:16.525Z,65.12
2023-01-03T12:18:56.047Z,65.09
2023-01-03T12:21:40.396Z,64.74
2023-01-03T12:24:39.672Z,65.01
2023-01-03T12:27:17.785Z,64.84
2023-01-03T12:29:59.649Z,65.04
2023-01-03T12:32:47.650Z,65.01
2023-01-03T12:35:39.654Z,65.10
2023-01-03T12:38:10.673Z,64.88
2023-01-03T12:41:02.584Z,64.83
2023-01-03T12:43:43.233Z,64.99
2023-01-03T12:46:24.352Z,65.05
2023-01-03T12:49:16.175Z,65.10
2023-01-03T12:51:45.462Z,64.90
2023-01-03T12:54:14.570Z,65.05
2023-01-03T12:56:56.145Z,64.88
2023-01-03T12:59:51.667Z,64.84
2023-01-03T13:02:48.370Z,64.94
2023-01-03T13:05:20.607Z,64.82
2023-01-03T13:08:19.815Z,64.93
2023-01-03T13:10:53.105Z,65.05
2023-01-03T13:13:22.714Z,65.04
2023-01-03T13:15:53.793Z,64.92
2023-01-03T13:18:23.031Z,65.00
2023-01-03T13:20:54.217Z,64.94
2023-01-03T13:23:29.405Z,64.90
2023-01-03T13:26:21.443Z,65.20
2023-01-03T13:28:52.287Z,64.96
2023-01-03T13:31:22.101Z,64.83
2023-01-03T13:34:11.169Z,65.01
2023-01-03T13:37:08.243Z,64.98
2023-01-03T13:39:52.840Z,65.00
2023-01-03T13:42:32.174Z,65.08
2023-01-03T13:45:16.661Z,64.85
2023-01-03T13:47:48.012Z,64.90
2023-01-03T13:50:30.577Z,65.00
2023-01-03T13:53:12.570Z,65.25
2023-01-03T13:55:54.589Z,65.08
2023-01-03T13:58:53.883Z,65.19
2023-01-03T14:01:41.908Z,65.04
2023-01-03T14:04:28.253Z,64.85
2023-01-03T14:07:16.133Z,64.86
2023-01-03T14:09:51.134Z,64.93
2023-01-03T14:12:52.727Z,64.76
2023-01-03T14:15:26.939Z,64.76
2023-01-03T14:18:00.448Z,64.68
2023-01-03T14:20:34.219Z,64.36
2023-01-03T14:23:23.797Z,64.64
2023-01-03T14:25:55.412Z,64.56
2023-01-03T14:28:26.220Z,64.51
2023-01-03T14:31:07.197Z,64.67
2023-01-03T14:33:43.094Z,64.36
2023-01-03T14:36:16.849Z,64.32
2023-01-03T14:38:54.219Z,64.30
2023-01-03T14:41:31.245Z,64.48
2023-01-03T14:44:19.718Z,64.36
2023-01-03T14:47:07.248Z,64.46
2023-01-03T14:49:47.326Z,64.64
2023-01-03T14:52:37.994Z,64.48
2023-01-03T14:55:09.852Z,64.46
2023-01-03T14:57:40.216Z,64.37
2023-01-03T15:00:16.446Z,64.37
2023-01-03T15:02:46.612Z,64.30
2023-01-03T15:05:51.869Z,64.53
2023-01-03T15:08:32.117Z,64.44
2023-01-03T15:11:08.490Z,64.35
2023-01-03T15:13:39.110Z,64.34
2023-01-03T15:16:31.187Z,64.36
2023-01-03T15:19:20.887Z,64.19
2023-01-03T15:21:49.424Z,64.20
2023-01-03T15:24:23.554Z,64.18
2023-01-03T15:26:53.858Z,64.25
2023-01-03T15:29:24.747Z,64.22
2023-01-03T15:31:55.821Z,64.38
2023-01-03T15:34:37.116Z,64.26
2023-01-03T15:37:14.263Z,64.08
2023-01-03T15:39:53.885Z,64.29
2023-01-03T15:42:47.784Z,64.22
2023-01-03T15:45:25.255Z,64.22
2023-01-03T15:47:58.608Z,64.28
2023-01-03T15:50:51.453Z,64.29
2023-01-03T15:53:22.858Z,64.42
2023-01-03T15:55:59.620Z,64.35
2023-01-03T15:58:29.883Z,64.46
2023-01-03T16:00:59.874Z,64.42
2023-01-03T16:03:31.495Z,64.50
2023-01-03T16:06:00.135Z,64.49
2023-01-03T16:08:30.247Z,64.48
2023-01-03T16:11:04.482Z,64.35
2023-01-03T16:13:42.415Z,64.22
2023-01-03T16:16:12.514Z,64.38
2023-01-03T16:18:52.291Z,64.32
2023-01-03T16:21:22.284Z,64.40
2023-01-03T16:23:51.582Z,64.25
2023-01-03T16:26:21.084Z,64.21
2023-01-03T16:28:50.062Z,64.11
2023-01-03T16:31:26.673Z,64.14
2023-01-03T16:33:56.081Z,64.00
2023-01-03T16:36:40.160Z,64.05
2023-01-03T16:39:14.542Z,64.16
2023-01-03T16:41:44.575Z,64.13
2023-01-03T16:44:13.563Z,64.17
2023-01-03T16:46:41.806Z,64.26
2023-01-03T16:49:11.470Z,64.05
2023-01-03T16:51:46.764Z,64.11
2023-01-03T16:54:21.449Z,64.15
2023-01-03T16:56:50.685Z,64.08
2023-01-03T16:59:21.839Z,63.99
2023-01-03T17:01:50.574Z,64.14
2023-01-03T17:04:19.160Z,64.09
2023-01-03T17:06:47.816Z,64.18
2023-01-03T17:09:23.593Z,64.19
2023-01-03T17:11:55.392Z,64.33
2023-01-03T17:14:24.193Z,64.18
2023-01-03T17:16:52.999Z,64.30
2023-01-03T17:20:02.880Z,64.27
2023-01-03T17:22:21.432Z,64.40
2023-01-03T17:24:52.604Z,64.45
2023-01-03T17:27:31.864Z,64.36
2023-01-03T17:30:04.572Z,64.35
2023-01-03T17:32:34.324Z,64.31
2023-01-03T17:35:05.292Z,64.42
2023-01-03T17:37:57.825Z,64.39
2023-01-03T17:40:33.196Z,64.34
2023-01-03T17:43:03.280Z,64.31
2023-01-03T17:45:50.521Z,64.19
2023-01-03T17:48:37.668Z,64.20
2023-01-03T17:51:06.603Z,64.24
2023-01-03T17:53:35.204Z,64.43
2023-01-03T17:56:03.994Z,64.41
2023-01-03T17:58:37.132Z,64.45
2023-01-03T18:01:08.490Z,64.52
2023-01-03T18:03:38.852Z,64.48
2023-01-03T18:06:21.102Z,64.59
2023-01-03T18:08:50.598Z,64.62
2023-01-03T18:11:21.118Z,64.60
2023-01-03T18:13:49.987Z,64.53
2023-01-03T18:16:21.692Z,64.47
2023-01-03T18:18:51.154Z,64.46
2023-01-03T18:21:28.108Z,64.45
2023-01-03T18:24:07.059Z,64.59
2023-01-03T18:26:38.520Z,64.61
2023-01-03T18:29:08.364Z,64.49
2023-01-03T18:31:36.885Z,64.40
2023-01-03T18:34:06.594Z,64.44
2023-01-03T18:36:45.020Z,64.40
2023-01-03T18:39:18.009Z,64.37
2023-01-03T18:41:46.376Z,64.52
2023-01-03T18:44:34.515Z,64.63
2023-01-03T18:47:06.827Z,64.51
2023-01-03T18:49:35.328Z,64.55
2023-01-03T18:52:04.166Z,64.42
2023-01-03T18:54:38.014Z,64.44
2023-01-03T18:57:06.259Z,64.43
2023-01-03T18:59:35.471Z,64.37
2023-01-03T19:02:14.492Z,64.48
2023-01-03T19:04:49.200Z,64.49
2023-01-03T19:07:29.442Z,64.59
2023-01-03T19:09:59.536Z,64.38
2023-01-03T19:12:30.251Z,64.41
2023-01-03T19:14:59.231Z,64.29
2023-01-03T19:17:28.341Z,64.34
2023-01-03T19:19:56.990Z,64.33
2023-01-03T19:22:27.117Z,64.46
2023-01-03T19:25:00.203Z,64.32
2023-01-03T19:27:39.758Z,64.23
2023-01-03T19:30:21.612Z,64.41
2023-01-03T19:32:55.856Z,64.43
2023-01-03T19:35:27.481Z,64.31
2023-01-03T19:37:55.744Z,64.36
2023-01-03T19:40:29.555Z,64.42
2023-01-03T19:42:59.852Z,64.44
2023-01-03T19:45:40.520Z,64.23
2023-01-03T19:48:21.135Z,64.28
2023-01-03T19:50:53.227Z,64.26
2023-01-03T19:53:21.461Z,64.30
2023-01-03T19:55:52.344Z,64.48
2023-01-03T19:58:36.640Z,64.45
2023-01-03T20:01:05.236Z,64.52
2023-01-03T20:03:39.209Z,64.41
2023-01-03T20:06:12.154Z,64.30
2023-01-03T20:08:40.370Z,64.33
2023-01-03T20:11:18.472Z,64.37
2023-01-03T20:13:47.664Z,64.31
2023-01-03T20:16:16.713Z,64.25
2023-01-03T20:18:45.286Z,64.36
2023-01-03T20:21:22.523Z,64.46
2023-01-03T20:23:57.520Z,64.48
2023-01-03T20:26:29.568Z,64.45
2023-01-03T20:29:00.184Z,64.40
2023-01-03T20:31:30.170Z,64.31
2023-01-03T20:33:59.980Z,64.35
2023-01-03T20:36:33.659Z,64.35
2023-01-03T20:39:02.144Z,64.30
2023-01-03T20:41:36.927Z,64.28
2023-01-03T20:44:09.717Z,64.40
2023-01-03T20:46:39.723Z,64.29
2023-01-03T20:49:22.571Z,64.29
2023-01-03T20:51:52.306Z,64.36
2023-01-03T20:54:21.283Z,64.42
2023-01-03T20:56:49.375Z,64.27
2023-01-03T20:59:20.465Z,64.31
2023-01-03T21:01:49.694Z,64.28
2023-01-03T21:04:18.935Z,64.31
2023-01-03T21:06:48.992Z,64.39
2023-01-03T21:09:17.368Z,64.32
2023-01-03T21:11:47.263Z,64.11
2023-01-03T21:14:15.503Z,64.29
2023-01-03T21:16:49.123Z,64.27
2023-01-03T21:19:23.340Z,64.34
2023-01-03T21:21:54.482Z,64.30
2023-01-03T21:24:24.477Z,64.47
2023-01-03T21:26:52.944Z,64.35
2023-01-03T21:29:22.364Z,64.21
2023-01-03T21:31:50.987Z,64.19
2023-01-03T21:34:21.391Z,64.29
2023-01-03T21:36:49.840Z,64.36
2023-01-03T21:39:18.123Z,64.27
2023-01-03T21:42:04.904Z,64.22
2023-01-03T21:44:33.471Z,64.25
2023-01-03T21:47:02.450Z,64.24
2023-01-03T21:49:30.864Z,64.24
2023-01-03T21:51:58.853Z,64.30
2023-01-03T21:54:27.901Z,64.20
2023-01-03T21:56:56.693Z,64.20
2023-01-03T21:59:25.091Z,64.25
2023-01-03T22:02:12.556Z,64.16
2023-01-03T22:04:41.332Z,64.23
2023-01-03T22:07:10.251Z,64.21
2023-01-03T22:09:57.978Z,64.07
2023-01-03T22:12:26.481Z,64.28
2023-01-03T22:14:55.436Z,64.15
2023-01-03T22:17:23.597Z,64.31
2023-01-03T22:19:52.124Z,64.14
2023-01-03T22:22:20.774Z,64.21
2023-01-03T22:24:50.031Z,64.19
2023-01-03T22:27:20.253Z,64.33
2023-01-03T22:29:48.940Z,64.29
2023-01-03T22:32:22.788Z,64.15
2023-01-03T22:34:51.463Z,64.04
2023-01-03T22:37:20.188Z,64.02
2023-01-03T22:39:48.839Z,64.02
2023-01-03T22:42:19.679Z,63.99
2023-01-03T22:44:49.261Z,64.08
2023-01-03T22:47:18.012Z,64.13
2023-01-03T22:49:48.379Z,64.04
2023-01-03T22:52:18.012Z,64.02
2023-01-03T22:54:47.089Z,63.98
2023-01-03T22:57:16.605Z,64.01
2023-01-03T22:59:45.573Z,64.05
2023-01-03T23:02:14.637Z,64.21
2023-01-03T23:04:44.297Z,64.06
2023-01-03T23:07:12.996Z,64.07
2023-01-03T23:09:41.779Z,64.07
2023-01-03T23:12:29.266Z,64.20
2023-01-03T23:14:57.404Z,64.19
2023-01-03T23:17:44.634Z,64.12
2023-01-03T23:20:13.362Z,64.23
2023-01-03T23:22:43.847Z,64.24
2023-01-03T23:25:12.070Z,63.98
2023-01-03T23:27:41.066Z,64.43
2023-01-03T23:30:10.203Z,64.04
2023-01-03T23:32:39.264Z,64.26
2023-01-03T23:35:08.538Z,64.46
2023-01-03T23:37:37.489Z,64.43
2023-01-03T23:40:07.255Z,64.30
2023-01-03T23:42:35.899Z,64.20
2023-01-03T23:45:05.356Z,64.33
2023-01-03T23:47:33.952Z,64.27
2023-01-03T23:50:02.810Z,64.18
2023-01-03T23:52:33.533Z,64.15
2023-01-03T23:55:08.531Z,64.17
2023-01-03T23:57:41.545Z,64.50
